Time;durP1;ratioP1;P1;durP2;ratioP2;P2;SDS_P1;SDS_P2;PMS_P1;PMS_P2;Temp;Humidity;BMP_temperature;BMP_pressure;BME280_temperature;BME280_humidity;BME280_pressure;Samples;Min_cycle;Max_cycle;Signal;HPM_P1;HPM_P2
2021/09/03 00:01:34;;;;;;;6.30;3.87;;;;;;;17.26;44.13;95758.19;5039611;28;20451;-71
2021/09/03 00:04:02;;;;;;;5.57;3.60;;;;;;;17.03;44.90;95754.38;5051367;28;20530;-70
2021/09/03 00:06:29;;;;;;;5.63;3.83;;;;;;;17.23;44.76;95751.59;5050937;28;20485;-71
2021/09/03 00:08:55;;;;;;;6.10;4.20;;;;;;;17.21;44.53;95750.25;5051263;28;20482;-73
2021/09/03 00:11:22;;;;;;;5.53;3.80;;;;;;;17.30;44.76;95755.78;5049736;28;20988;-71
2021/09/03 00:13:49;;;;;;;5.10;4.27;;;;;;;17.08;44.95;95754.31;5051153;28;20458;-72
2021/09/03 00:16:18;;;;;;;4.20;3.80;;;;;;;16.93;45.21;95741.16;5035305;28;20933;-73
2021/09/03 00:18:46;;;;;;;5.90;3.70;;;;;;;16.65;46.44;95743.72;5038352;28;20932;-72
2021/09/03 00:21:14;;;;;;;5.57;4.20;;;;;;;16.65;46.37;95747.16;5050374;28;20451;-73
2021/09/03 00:23:41;;;;;;;6.43;3.77;;;;;;;16.77;45.52;95739.69;5037622;28;20431;-73
2021/09/03 00:26:08;;;;;;;5.37;3.83;;;;;;;16.89;45.61;95739.38;5050430;28;20451;-71
2021/09/03 00:28:35;;;;;;;6.23;4.07;;;;;;;16.85;45.05;95738.31;5046305;28;20537;-72
2021/09/03 00:31:01;;;;;;;5.37;3.83;;;;;;;16.82;45.73;95723.00;5030366;28;20452;-72
2021/09/03 00:33:28;;;;;;;7.23;4.20;;;;;;;16.75;45.65;95728.56;5044750;28;20462;-73
2021/09/03 00:35:55;;;;;;;5.97;4.03;;;;;;;16.75;45.51;95733.88;5039126;28;21008;-72
2021/09/03 00:38:22;;;;;;;8.27;4.30;;;;;;;16.43;46.14;95735.31;5050401;28;20465;-73
2021/09/03 00:40:49;;;;;;;5.20;3.60;;;;;;;16.32;46.13;95729.28;5050054;28;20467;-70
2021/09/03 00:43:16;;;;;;;6.97;3.73;;;;;;;16.29;46.29;95732.47;5050418;28;20475;-72
2021/09/03 00:45:43;;;;;;;4.43;3.43;;;;;;;16.38;46.44;95728.22;5031257;28;20949;-74
2021/09/03 00:48:10;;;;;;;4.97;4.10;;;;;;;16.21;46.96;95733.84;5042099;28;20525;-74
2021/09/03 00:50:38;;;;;;;8.07;3.90;;;;;;;16.14;47.04;95706.88;5049733;28;20470;-72
2021/09/03 00:53:05;;;;;;;5.00;4.07;;;;;;;16.43;46.57;95725.53;5050430;28;20505;-71
2021/09/03 00:55:32;;;;;;;6.93;4.10;;;;;;;16.37;46.27;95710.75;5049588;28;20497;-73
2021/09/03 00:57:59;;;;;;;4.17;3.70;;;;;;;16.20;47.42;95715.59;5036879;28;20434;-70
2021/09/03 01:00:27;;;;;;;5.10;4.10;;;;;;;16.22;47.40;95729.34;5037003;28;20451;-72
2021/09/03 01:02:54;;;;;;;5.60;3.97;;;;;;;16.09;46.98;95729.91;5035457;28;20442;-71
2021/09/03 01:05:23;;;;;;;6.30;4.00;;;;;;;16.16;47.75;95725.13;5050129;28;20457;-72
2021/09/03 01:07:51;;;;;;;4.50;3.70;;;;;;;16.37;46.82;95725.84;5050056;28;20463;-71
2021/09/03 01:10:20;;;;;;;6.80;3.83;;;;;;;16.38;46.61;95728.22;5049863;28;20451;-71
2021/09/03 01:12:48;;;;;;;7.40;4.10;;;;;;;16.49;46.64;95724.50;5050000;28;20454;-71
2021/09/03 01:15:15;;;;;;;7.73;4.20;;;;;;;16.56;46.99;95714.41;5050143;28;20480;-73
2021/09/03 01:17:43;;;;;;;4.77;4.20;;;;;;;16.61;45.84;95703.78;5036806;28;20440;-72
2021/09/03 01:20:11;;;;;;;7.40;3.97;;;;;;;16.60;45.60;95715.44;5053366;28;20956;-70
2021/09/03 01:22:39;;;;;;;5.00;3.73;;;;;;;16.69;45.36;95703.22;5049455;28;20478;-71
2021/09/03 01:25:07;;;;;;;4.40;3.63;;;;;;;16.79;45.26;95711.09;5046298;28;20857;-73
2021/09/03 01:27:35;;;;;;;4.67;3.50;;;;;;;16.75;46.07;95707.41;5039198;28;20508;-71
2021/09/03 01:30:04;;;;;;;5.30;3.80;;;;;;;16.61;46.21;95698.50;5033508;28;20462;-70
2021/09/03 01:32:32;;;;;;;5.17;3.70;;;;;;;16.73;46.29;95696.28;5037888;28;20443;-72
2021/09/03 01:34:58;;;;;;;5.13;4.00;;;;;;;16.83;46.39;95704.19;5048742;28;20471;-72
2021/09/03 01:37:26;;;;;;;4.23;3.50;;;;;;;16.74;46.45;95705.84;5036607;28;20970;-73
2021/09/03 01:39:53;;;;;;;4.10;3.70;;;;;;;16.57;46.92;95694.81;5036473;28;20435;-71
2021/09/03 01:42:20;;;;;;;5.40;4.43;;;;;;;16.58;47.29;95688.47;5043362;28;20475;-71
2021/09/03 01:44:46;;;;;;;4.50;3.50;;;;;;;16.66;48.54;95692.41;5041197;28;20486;-73
2021/09/03 01:47:13;;;;;;;6.97;4.30;;;;;;;16.71;47.80;95685.22;5048688;28;20580;-72
2021/09/03 01:49:40;;;;;;;5.27;3.90;;;;;;;16.59;47.56;95676.81;5041387;28;20534;-71
2021/09/03 01:52:07;;;;;;;7.87;4.40;;;;;;;16.54;48.75;95682.13;5043767;28;20435;-72
2021/09/03 01:54:34;;;;;;;6.43;4.50;;;;;;;16.40;48.71;95683.78;5049329;28;20443;-73
2021/09/03 01:57:01;;;;;;;6.37;4.47;;;;;;;16.56;48.44;95698.53;5049476;28;20442;-71
2021/09/03 01:59:29;;;;;;;9.70;4.83;;;;;;;16.39;48.19;95702.53;5030413;28;20459;-71
2021/09/03 02:01:55;;;;;;;10.33;6.00;;;;;;;16.12;49.04;95692.34;5029886;28;20436;-71
2021/09/03 02:04:24;;;;;;;10.03;5.70;;;;;;;16.01;49.38;95693.44;5048342;28;20450;-72
2021/09/03 02:06:51;;;;;;;7.43;5.80;;;;;;;16.09;49.53;95688.38;5051905;28;20435;-71
2021/09/03 02:09:18;;;;;;;8.73;5.97;;;;;;;16.23;48.85;95678.81;5049670;28;20485;-73
2021/09/03 02:11:45;;;;;;;8.30;5.13;;;;;;;16.21;48.88;95682.78;5039452;28;20434;-74
2021/09/03 02:14:12;;;;;;;8.80;5.23;;;;;;;16.35;48.77;95686.41;5050361;28;20449;-70
2021/09/03 02:16:39;;;;;;;6.47;5.27;;;;;;;16.19;49.75;95680.41;5048496;28;20453;-73
2021/09/03 02:19:06;;;;;;;7.83;5.00;;;;;;;16.30;49.37;95678.50;5049344;28;20447;-70
2021/09/03 02:21:33;;;;;;;9.20;5.13;;;;;;;16.33;49.37;95680.59;5048384;28;20549;-72
2021/09/03 02:24:01;;;;;;;7.70;5.43;;;;;;;16.19;50.56;95671.69;5049698;28;20442;-70
2021/09/03 02:26:28;;;;;;;6.00;5.40;;;;;;;16.44;50.07;95666.25;5048801;28;20447;-72
2021/09/03 02:28:55;;;;;;;8.67;5.57;;;;;;;16.43;49.09;95645.38;5049186;28;20478;-71
2021/09/03 02:31:22;;;;;;;7.50;5.57;;;;;;;16.45;49.86;95657.28;5049356;28;20446;-72
2021/09/03 02:33:49;;;;;;;8.73;5.77;;;;;;;16.48;49.95;95654.13;5043840;28;20539;-71
2021/09/03 02:36:16;;;;;;;9.00;5.73;;;;;;;16.27;50.09;95647.34;5032596;28;20436;-71
2021/09/03 02:38:44;;;;;;;6.97;5.40;;;;;;;16.22;50.04;95655.28;5036367;28;20911;-70
2021/09/03 02:41:11;;;;;;;11.77;6.43;;;;;;;16.36;49.60;95648.34;5052227;28;20438;-72
2021/09/03 02:43:38;;;;;;;8.63;5.83;;;;;;;16.29;49.96;95652.34;5052781;28;20439;-72
2021/09/03 02:46:05;;;;;;;7.97;6.07;;;;;;;16.25;50.85;95665.31;5053895;28;20497;-71
2021/09/03 02:48:32;;;;;;;11.60;6.30;;;;;;;16.06;50.43;95636.03;5052242;28;20522;-70
2021/09/03 02:50:59;;;;;;;12.63;6.03;;;;;;;16.08;50.75;95651.63;5037929;28;20447;-71
2021/09/03 02:53:26;;;;;;;8.87;6.57;;;;;;;16.04;51.01;95666.44;5052550;28;20475;-70
2021/09/03 02:55:53;;;;;;;12.87;7.20;;;;;;;16.01;50.80;95648.50;5048572;28;20436;-72
2021/09/03 02:58:20;;;;;;;14.10;6.83;;;;;;;15.92;50.91;95660.69;5042327;28;20451;-71
2021/09/03 03:00:46;;;;;;;10.73;6.90;;;;;;;15.94;50.89;95653.28;5050265;28;20512;-71
2021/09/03 03:03:14;;;;;;;12.03;7.30;;;;;;;15.87;50.98;95647.50;5040596;28;20443;-71
2021/09/03 03:05:41;;;;;;;11.77;7.50;;;;;;;15.80;50.68;95657.56;5037488;28;20432;-72
2021/09/03 03:08:08;;;;;;;13.23;8.10;;;;;;;15.76;51.48;95661.81;5037313;28;20816;-73
2021/09/03 03:10:35;;;;;;;10.77;6.80;;;;;;;15.69;51.47;95666.59;5052220;28;20454;-71
2021/09/03 03:13:19;;;;;;;13.20;7.10;;;;;;;15.62;52.26;95674.00;5047431;28;20491;-71
2021/09/03 03:15:47;;;;;;;11.93;6.50;;;;;;;15.27;52.61;95671.38;5044719;28;20469;-71
2021/09/03 03:18:14;;;;;;;10.67;6.00;;;;;;;15.01;52.53;95673.22;5035487;28;20435;-72
2021/09/03 03:20:42;;;;;;;8.23;6.00;;;;;;;15.15;52.66;95677.72;5051988;28;21408;-71
2021/09/03 03:23:09;;;;;;;8.80;6.50;;;;;;;15.22;51.96;95678.22;5051511;28;20451;-72
2021/09/03 03:25:37;;;;;;;9.90;5.97;;;;;;;15.25;52.81;95664.50;5051299;28;21216;-73
2021/09/03 03:28:04;;;;;;;7.37;6.10;;;;;;;15.38;52.56;95673.75;5037898;28;20864;-72
2021/09/03 03:30:32;;;;;;;8.70;5.67;;;;;;;15.37;51.91;95681.91;5031933;28;20428;-71
2021/09/03 03:33:00;;;;;;;8.93;6.30;;;;;;;15.24;52.02;95670.84;5044445;28;20447;-73
2021/09/03 03:35:27;;;;;;;8.63;6.27;;;;;;;15.33;52.37;95667.69;5050889;28;20518;-72
2021/09/03 03:37:54;;;;;;;9.13;6.37;;;;;;;15.34;52.24;95685.09;5040871;28;20966;-70
2021/09/03 03:40:22;;;;;;;8.90;6.70;;;;;;;15.34;52.05;95677.97;5048352;28;20451;-73
2021/09/03 03:42:49;;;;;;;11.63;6.47;;;;;;;15.33;52.31;95683.53;5051641;28;20467;-71
2021/09/03 03:45:16;;;;;;;15.00;6.03;;;;;;;15.23;52.16;95689.59;5036635;28;20786;-70
2021/09/03 03:47:43;;;;;;;11.53;6.33;;;;;;;15.19;52.44;95688.53;5042969;28;20462;-71
2021/09/03 03:50:11;;;;;;;18.00;6.73;;;;;;;15.29;52.06;95703.59;5031467;28;20491;-71
2021/09/03 03:52:39;;;;;;;14.60;7.17;;;;;;;15.16;52.87;95705.69;5049708;28;20439;-71
2021/09/03 03:55:07;;;;;;;13.57;6.40;;;;;;;15.02;53.22;95712.53;5040689;28;20476;-72
2021/09/03 03:57:34;;;;;;;13.43;6.47;;;;;;;15.14;53.01;95713.06;5045325;28;20435;-72
2021/09/03 04:00:01;;;;;;;19.00;7.13;;;;;;;15.23;53.26;95713.34;5040662;28;20542;-71
2021/09/03 04:02:30;;;;;;;9.90;6.40;;;;;;;15.17;54.52;95711.75;5049301;28;20443;-72
2021/09/03 04:04:57;;;;;;;14.47;7.50;;;;;;;15.14;54.11;95726.25;5031770;28;20527;-72
2021/09/03 04:07:24;;;;;;;11.30;7.23;;;;;;;15.18;53.87;95722.06;5031272;28;20455;-71
2021/09/03 04:09:51;;;;;;;13.30;6.67;;;;;;;15.32;53.62;95726.81;5054171;28;20485;-69
2021/09/03 04:12:18;;;;;;;13.03;7.00;;;;;;;15.08;53.92;95714.13;5053373;28;20439;-71
2021/09/03 04:14:45;;;;;;;13.43;7.03;;;;;;;14.98;54.71;95721.25;5053596;28;20450;-72
2021/09/03 04:17:12;;;;;;;12.20;6.60;;;;;;;15.21;53.32;95723.38;5044328;28;20509;-71
2021/09/03 04:19:39;;;;;;;11.60;6.80;;;;;;;15.18;54.28;95723.91;5046382;28;20450;-72
2021/09/03 04:22:06;;;;;;;36.00;8.80;;;;;;;15.21;54.39;95724.19;5037783;28;20457;-72
2021/09/03 04:24:33;;;;;;;16.20;8.03;;;;;;;15.04;54.64;95723.63;5050896;28;20441;-71
2021/09/03 04:27:00;;;;;;;19.20;7.63;;;;;;;14.49;55.19;95725.38;5044829;28;20436;-71
2021/09/03 04:29:27;;;;;;;14.53;8.50;;;;;;;14.36;55.16;95731.13;5041797;28;20481;-71
2021/09/03 04:31:55;;;;;;;12.20;7.37;;;;;;;14.65;54.59;95730.41;5050239;28;20542;-71
2021/09/03 04:34:22;;;;;;;14.40;7.50;;;;;;;14.82;54.51;95725.72;5050456;28;20979;-72
2021/09/03 04:36:49;;;;;;;15.17;7.93;;;;;;;14.68;54.13;95692.97;5050080;28;20439;-72
2021/09/03 04:39:16;;;;;;;15.30;8.43;;;;;;;15.03;54.25;95721.25;5050436;28;20816;-71
2021/09/03 04:41:43;;;;;;;16.80;7.60;;;;;;;14.94;53.96;95686.66;5035369;28;20482;-71
2021/09/03 04:44:10;;;;;;;12.73;7.53;;;;;;;15.31;54.17;95717.31;5050509;28;20451;-71
2021/09/03 04:46:37;;;;;;;11.23;8.20;;;;;;;15.30;54.33;95721.00;5037601;28;20494;-71
2021/09/03 04:49:05;;;;;;;16.70;7.73;;;;;;;15.21;54.10;95696.97;5031441;28;20984;-71
2021/09/03 04:51:31;;;;;;;14.17;7.47;;;;;;;15.31;53.79;95714.69;5030078;28;20501;-73
2021/09/03 04:53:59;;;;;;;14.83;8.07;;;;;;;15.38;53.45;95715.19;5045685;28;20443;-71
2021/09/03 04:56:26;;;;;;;14.27;7.80;;;;;;;15.30;53.11;95715.72;5050243;28;20436;-71
2021/09/03 04:58:58;;;;;;;17.80;8.20;;;;;;;15.32;53.46;95703.03;5035222;28;20953;-71
2021/09/03 05:01:24;;;;;;;14.37;7.93;;;;;;;15.34;54.34;95722.06;5036786;28;20465;-71
2021/09/03 05:03:52;;;;;;;16.23;7.40;;;;;;;15.45;53.56;95713.09;5050084;28;20446;-71
2021/09/03 05:06:19;;;;;;;19.13;8.20;;;;;;;15.49;54.37;95712.28;5049465;28;20778;-71
2021/09/03 05:08:46;;;;;;;18.57;9.00;;;;;;;15.57;53.89;95713.63;5050409;28;20451;-70
2021/09/03 05:11:13;;;;;;;12.27;7.13;;;;;;;15.46;54.28;95694.34;5035642;28;20439;-69
2021/09/03 05:13:40;;;;;;;16.77;8.30;;;;;;;15.60;53.33;95705.19;5049859;28;20442;-70
2021/09/03 05:16:07;;;;;;;16.70;7.70;;;;;;;15.43;53.17;95715.22;5035295;28;20558;-70
2021/09/03 05:18:34;;;;;;;14.43;7.70;;;;;;;15.43;53.58;95699.38;5035567;28;20435;-71
2021/09/03 05:21:01;;;;;;;18.33;7.10;;;;;;;15.62;53.37;95705.69;5049958;28;20451;-70
2021/09/03 05:23:28;;;;;;;12.23;7.63;;;;;;;15.68;53.24;95717.81;5035752;28;20438;-72
2021/09/03 05:25:55;;;;;;;20.47;7.50;;;;;;;15.56;53.89;95725.25;5038991;28;20436;-71
2021/09/03 05:28:22;;;;;;;15.97;6.40;;;;;;;15.14;54.42;95707.78;5046391;28;20450;-71
2021/09/03 05:30:49;;;;;;;16.73;7.03;;;;;;;15.30;55.19;95715.72;5049069;28;20490;-71
2021/09/03 05:33:16;;;;;;;11.17;6.70;;;;;;;15.37;54.20;95716.25;5036625;28;20454;-70
2021/09/03 05:35:43;;;;;;;10.83;7.10;;;;;;;15.55;54.24;95729.72;5049992;28;21284;-73
2021/09/03 05:38:10;;;;;;;12.27;6.93;;;;;;;15.51;53.21;95730.53;5050404;28;20434;-72
2021/09/03 05:40:37;;;;;;;11.23;7.30;;;;;;;15.60;53.18;95711.22;5049043;28;20492;-70
2021/09/03 05:43:04;;;;;;;12.57;7.10;;;;;;;15.87;52.49;95716.22;5049329;28;20466;-72
2021/09/03 05:45:32;;;;;;;10.13;7.07;;;;;;;15.49;54.91;95724.72;5049130;28;20497;-71
2021/09/03 05:48:02;;;;;;;14.30;7.40;;;;;;;15.58;53.99;95733.72;5039581;28;20439;-71
2021/09/03 05:50:29;;;;;;;14.40;7.73;;;;;;;15.62;54.34;95735.53;5045206;28;20537;-71
2021/09/03 05:52:57;;;;;;;11.93;7.43;;;;;;;15.87;53.06;95721.50;5049566;28;20438;-70
2021/09/03 05:55:24;;;;;;;12.57;7.47;;;;;;;15.75;53.03;95728.91;5035595;28;20447;-71
2021/09/03 05:57:53;;;;;;;16.40;7.50;;;;;;;15.83;53.44;95731.81;5029580;28;20443;-72
2021/09/03 06:00:21;;;;;;;13.87;7.07;;;;;;;16.10;52.80;95720.91;5041630;28;20443;-71
2021/09/03 06:02:48;;;;;;;12.27;7.07;;;;;;;16.30;52.00;95718.19;5049170;28;20865;-72
2021/09/03 06:05:16;;;;;;;9.93;6.57;;;;;;;16.15;52.94;95728.81;5049788;28;21042;-70
2021/09/03 06:07:43;;;;;;;9.97;6.63;;;;;;;16.30;52.50;95715.53;5034795;28;20520;-72
2021/09/03 06:10:11;;;;;;;12.30;7.80;;;;;;;16.34;51.31;95711.28;5051539;28;20485;-73
2021/09/03 06:12:38;;;;;;;10.57;7.03;;;;;;;16.18;50.99;95723.78;5050522;28;20817;-70
2021/09/03 06:15:07;;;;;;;14.57;7.40;;;;;;;16.24;51.49;95721.91;5041591;28;20809;-72
2021/09/03 06:17:35;;;;;;;14.30;7.47;;;;;;;16.10;50.47;95720.91;5045934;28;20450;-72
2021/09/03 06:20:05;;;;;;;18.70;7.00;;;;;;;16.20;50.71;95723.53;5054217;28;20481;-70
2021/09/03 06:22:32;;;;;;;13.63;7.27;;;;;;;16.16;50.88;95714.53;5045132;28;20501;-71
2021/09/03 06:24:59;;;;;;;13.03;6.97;;;;;;;16.06;51.67;95704.00;5050682;28;20458;-71
2021/09/03 06:27:26;;;;;;;10.67;6.70;;;;;;;16.22;50.50;95722.19;5051989;28;20803;-70
2021/09/03 06:29:53;;;;;;;13.23;6.80;;;;;;;16.62;50.54;95721.25;5039158;28;20479;-71
2021/09/03 06:32:23;;;;;;;11.23;7.33;;;;;;;16.89;50.86;95718.97;5052738;28;20524;-70
2021/09/03 06:34:57;;;;;;;11.57;7.10;;;;;;;17.12;49.67;95707.69;5053385;28;20439;-69
2021/09/03 06:37:26;;;;;;;12.77;7.87;;;;;;;16.91;48.71;95711.56;5045552;28;20436;-71
2021/09/03 06:39:53;;;;;;;12.60;7.50;;;;;;;16.75;48.35;95702.09;5046440;28;20890;-69
2021/09/03 06:42:20;;;;;;;12.23;6.70;;;;;;;17.16;49.45;95727.25;5051906;28;20476;-71
2021/09/03 06:44:48;;;;;;;9.37;7.23;;;;;;;17.38;50.00;95720.72;5052559;28;20443;-71
2021/09/03 06:47:16;;;;;;;10.63;7.23;;;;;;;17.21;50.75;95729.88;5038348;28;20454;-72
2021/09/03 06:49:44;;;;;;;13.90;7.53;;;;;;;17.39;49.20;95723.09;5044230;28;20475;-72
2021/09/03 06:52:13;;;;;;;16.00;7.70;;;;;;;17.67;47.83;95713.63;5046517;28;20448;-70
2021/09/03 06:54:41;;;;;;;10.97;7.47;;;;;;;17.76;48.37;95712.75;5040668;28;20442;-70
2021/09/03 06:57:08;;;;;;;18.17;8.10;;;;;;;17.75;47.85;95710.38;5038855;28;20480;-73
2021/09/03 06:59:35;;;;;;;14.63;8.13;;;;;;;17.85;46.93;95720.88;5052635;28;20439;-70
2021/09/03 07:02:02;;;;;;;13.07;8.00;;;;;;;17.95;47.12;95720.78;5040252;28;20446;-71
2021/09/03 07:04:29;;;;;;;12.33;7.43;;;;;;;17.89;49.10;95706.78;5046702;28;20878;-71
2021/09/03 07:06:56;;;;;;;12.40;7.33;;;;;;;17.97;49.54;95723.94;5042662;28;20450;-70
2021/09/03 07:09:32;;;;;;;11.80;7.30;;;;;;;18.07;48.72;95723.81;5051985;28;20470;-70
2021/09/03 07:12:00;;;;;;;10.73;7.47;;;;;;;18.14;47.96;95721.63;5051877;28;20442;-70
2021/09/03 07:14:27;;;;;;;12.40;7.30;;;;;;;18.40;47.80;95714.94;5051707;28;20505;-72
2021/09/03 07:16:54;;;;;;;10.67;7.30;;;;;;;18.57;47.77;95715.31;5043490;28;20934;-73
2021/09/03 07:19:21;;;;;;;13.97;7.97;;;;;;;18.67;46.88;95712.50;5044515;28;20434;-72
2021/09/03 07:21:48;;;;;;;8.63;7.00;;;;;;;18.41;46.89;95713.09;5047338;28;20440;-73
2021/09/03 07:24:15;;;;;;;14.90;8.03;;;;;;;18.48;48.46;95714.38;5042886;28;20562;-71
2021/09/03 07:26:41;;;;;;;13.73;7.30;;;;;;;18.59;46.97;95699.09;5048892;28;20787;-71
2021/09/03 07:29:08;;;;;;;13.53;8.13;;;;;;;18.42;48.21;95707.53;5032149;28;20569;-69
2021/09/03 07:31:35;;;;;;;14.27;7.10;;;;;;;18.60;45.93;95706.75;5031448;28;21049;-72
2021/09/03 07:34:02;;;;;;;14.30;7.17;;;;;;;18.76;45.30;95708.13;5031751;28;20197;-71
2021/09/03 07:36:29;;;;;;;16.47;7.53;;;;;;;18.98;43.74;95707.56;5044928;28;20580;-70
2021/09/03 07:38:56;;;;;;;12.77;7.50;;;;;;;18.73;43.44;95706.06;5051602;28;20598;-70
2021/09/03 07:41:23;;;;;;;10.73;6.97;;;;;;;18.77;43.63;95717.69;5039946;28;20245;-74
2021/09/03 07:43:51;;;;;;;8.63;6.87;;;;;;;18.79;44.19;95720.84;5045703;28;20455;-72
2021/09/03 07:46:18;;;;;;;11.07;7.03;;;;;;;18.68;43.85;95719.41;5041672;28;20443;-72
2021/09/03 07:48:45;;;;;;;11.60;6.47;;;;;;;18.91;45.76;95723.06;5051550;28;20488;-71
2021/09/03 07:51:12;;;;;;;16.90;7.17;;;;;;;19.08;43.79;95712.72;5050906;28;20490;-73
2021/09/03 07:53:39;;;;;;;10.47;6.87;;;;;;;19.18;45.30;95716.03;5038605;28;20456;-72
2021/09/03 07:56:06;;;;;;;10.53;6.60;;;;;;;19.27;45.17;95710.06;5050297;28;20188;-71
2021/09/03 07:58:33;;;;;;;14.33;7.30;;;;;;;19.26;45.83;95708.47;5051449;28;20283;-71
2021/09/03 08:01:01;;;;;;;11.63;6.87;;;;;;;19.40;45.36;95709.31;5047369;28;20190;-71
2021/09/03 08:03:29;;;;;;;9.47;7.00;;;;;;;19.63;44.39;95711.09;5031483;28;20197;-70
2021/09/03 08:05:56;;;;;;;10.33;6.20;;;;;;;19.73;44.44;95695.75;5044896;28;20742;-70
2021/09/03 08:08:23;;;;;;;11.97;6.67;;;;;;;19.81;43.48;95680.97;5039718;28;20283;-71
2021/09/03 08:10:50;;;;;;;11.53;6.57;;;;;;;19.97;42.91;95692.91;5036781;28;20219;-70
2021/09/03 08:13:17;;;;;;;11.60;6.20;;;;;;;19.94;43.30;95688.19;5051239;28;20732;-71
2021/09/03 08:15:44;;;;;;;9.67;6.43;;;;;;;20.20;41.20;95670.66;5038134;28;20205;-73
2021/09/03 08:18:11;;;;;;;9.93;6.63;;;;;;;19.79;40.42;95667.19;5033207;28;20197;-71
2021/09/03 08:20:38;;;;;;;10.73;6.70;;;;;;;19.79;41.58;95659.22;5039749;28;20204;-71
2021/09/03 08:23:05;;;;;;;8.57;6.50;;;;;;;20.09;42.79;95653.28;5051124;28;20201;-70
2021/09/03 08:25:32;;;;;;;8.77;5.97;;;;;;;20.19;42.86;95655.78;5051137;28;20274;-71
2021/09/03 08:28:00;;;;;;;14.13;6.70;;;;;;;20.39;42.43;95660.72;5050796;28;20197;-70
2021/09/03 08:30:27;;;;;;;9.23;6.80;;;;;;;20.47;41.43;95654.69;5050966;28;20223;-71
2021/09/03 08:32:55;;;;;;;8.07;6.23;;;;;;;20.43;40.37;95650.25;5039470;28;20205;-71
2021/09/03 08:35:22;;;;;;;10.70;5.73;;;;;;;20.73;40.49;95649.59;5048676;28;20269;-73
2021/09/03 08:37:51;;;;;;;9.20;5.90;;;;;;;20.61;40.80;95641.31;5051695;28;20227;-72
2021/09/03 08:40:18;;;;;;;9.10;6.73;;;;;;;20.82;41.04;95645.91;5036715;28;20193;-70
2021/09/03 08:42:47;;;;;;;10.47;6.47;;;;;;;20.79;40.94;95640.38;5051147;28;20408;-72
2021/09/03 08:45:15;;;;;;;8.23;6.40;;;;;;;20.79;39.91;95630.53;5050995;28;20330;-71
2021/09/03 08:47:44;;;;;;;14.40;7.17;;;;;;;21.02;40.13;95623.38;5039970;28;20202;-71
2021/09/03 08:50:13;;;;;;;8.93;5.93;;;;;;;21.20;40.29;95621.59;5051144;28;20247;-71
2021/09/03 08:52:46;;;;;;;15.00;6.03;;;;;;;21.31;39.89;95631.72;5044596;28;20189;-71
2021/09/03 08:55:14;;;;;;;12.73;6.27;;;;;;;21.14;40.51;95632.41;5042518;28;20192;-71
2021/09/03 08:57:42;;;;;;;8.47;5.57;;;;;;;21.04;40.69;95632.63;5049694;28;20234;-72
2021/09/03 09:00:33;;;;;;;9.07;6.03;;;;;;;21.27;40.43;95624.63;5050496;28;20202;-71
2021/09/03 09:03:13;;;;;;;8.03;6.17;;;;;;;21.35;38.73;95621.22;5050260;28;20223;-72
2021/09/03 09:05:43;;;;;;;9.33;5.63;;;;;;;21.69;39.55;95616.06;5049833;28;20558;-72
2021/09/03 09:08:11;;;;;;;11.67;5.77;;;;;;;21.56;38.90;95612.41;5036770;28;20188;-71
2021/09/03 09:10:51;;;;;;;13.10;5.90;;;;;;;21.54;39.11;95613.78;5036599;28;20213;-71
2021/09/03 09:13:21;;;;;;;10.77;5.73;;;;;;;21.85;38.53;95619.94;5030184;28;20275;-72
2021/09/03 09:16:16;;;;;;;10.47;6.17;;;;;;;22.17;37.50;95619.53;5042925;28;20200;-73
2021/09/03 09:18:48;;;;;;;11.30;6.00;;;;;;;22.20;36.53;95616.28;5037050;28;20193;-72
2021/09/03 09:21:35;;;;;;;8.80;5.03;;;;;;;22.22;37.26;95619.41;5049465;28;20600;-71
2021/09/03 09:24:13;;;;;;;13.20;5.70;;;;;;;21.90;38.48;95593.09;5039671;28;20196;-72
2021/09/03 09:26:56;;;;;;;10.63;5.50;;;;;;;21.92;37.44;95612.25;5032500;28;20228;-71
2021/09/03 09:29:25;;;;;;;8.33;5.73;;;;;;;21.73;36.08;95607.13;5040619;28;20393;-71
2021/09/03 09:31:57;;;;;;;8.87;6.00;;;;;;;21.99;36.85;95609.91;5035402;28;20216;-72
2021/09/03 09:34:29;;;;;;;11.37;6.00;;;;;;;21.71;36.65;95576.53;5049970;28;20196;-73
2021/09/03 09:37:00;;;;;;;10.33;6.20;;;;;;;21.95;36.50;95598.31;5046229;28;20197;-72
2021/09/03 09:39:43;;;;;;;9.90;5.30;;;;;;;22.29;36.77;95603.72;5029849;28;20220;-69
2021/09/03 09:42:22;;;;;;;7.33;5.37;;;;;;;22.29;35.98;95601.06;5046961;28;20762;-72
2021/09/03 09:45:05;;;;;;;9.50;5.30;;;;;;;22.40;36.31;95599.66;5041326;28;20205;-70
2021/09/03 09:47:34;;;;;;;8.47;5.47;;;;;;;22.33;37.96;95594.00;5040481;28;20929;-70
2021/09/03 09:50:23;;;;;;;91.60;80.87;;;;;;;22.13;37.66;95589.25;5041721;28;20204;-72
2021/09/03 09:52:50;;;;;;;54.27;48.60;;;;;;;22.65;36.46;95590.13;5040081;28;20193;-72
2021/09/03 09:55:17;;;;;;;18.90;14.63;;;;;;;22.56;34.98;95587.44;5053477;28;20196;-72
2021/09/03 09:57:49;;;;;;;9.13;5.00;;;;;;;22.77;36.71;95595.63;5052958;28;20193;-74
2021/09/03 10:00:17;;;;;;;13.43;5.43;;;;;;;23.27;34.26;95579.81;5053626;28;20204;-71
2021/09/03 10:02:44;;;;;;;9.73;5.20;;;;;;;23.71;35.06;95580.19;5038843;28;20661;-71
2021/09/03 10:05:12;;;;;;;10.03;6.13;;;;;;;23.59;33.31;95579.31;5053368;28;20211;-70
2021/09/03 10:07:39;;;;;;;6.77;4.57;;;;;;;23.71;34.48;95579.41;5038583;28;20199;-72
2021/09/03 10:10:06;;;;;;;10.83;5.57;;;;;;;23.97;33.48;95580.06;5053424;28;20546;-72
2021/09/03 10:12:34;;;;;;;8.40;5.37;;;;;;;23.65;33.10;95575.34;5053074;28;20279;-72
2021/09/03 10:15:18;;;;;;;6.87;5.20;;;;;;;23.81;33.17;95563.00;5053360;28;20560;-71
2021/09/03 10:18:02;;;;;;;6.67;5.77;;;;;;;23.89;32.60;95564.84;5036328;28;20338;-72
2021/09/03 10:20:47;;;;;;;13.57;5.67;;;;;;;23.67;33.39;95557.06;5042723;28;20185;-72
2021/09/03 10:23:54;;;;;;;8.93;5.03;;;;;;;24.04;33.54;95551.72;5047115;28;20189;-71
2021/09/03 10:26:47;;;;;;;7.10;5.10;;;;;;;24.11;32.78;95551.19;5048587;28;20607;-71
2021/09/03 10:29:41;;;;;;;5.63;5.03;;;;;;;24.41;31.98;95539.34;5052826;28;20246;-71
2021/09/03 10:32:21;;;;;;;7.60;5.30;;;;;;;24.23;31.47;95547.81;5052400;28;20220;-71
2021/09/03 10:34:51;;;;;;;6.63;4.80;;;;;;;23.71;30.72;95545.41;5052788;28;20216;-72
2021/09/03 10:37:18;;;;;;;11.00;4.93;;;;;;;24.39;31.30;95533.53;5052574;28;20222;-73
2021/09/03 10:39:52;;;;;;;7.20;5.10;;;;;;;24.88;31.55;95532.66;5041232;28;20211;-71
2021/09/03 10:42:35;;;;;;;7.70;4.87;;;;;;;24.53;31.65;95530.56;5038052;28;20232;-70
2021/09/03 10:45:09;;;;;;;7.83;4.80;;;;;;;24.22;31.21;95536.31;5052609;28;20199;-70
2021/09/03 10:47:41;;;;;;;9.73;5.33;;;;;;;24.35;32.03;95535.28;5052948;28;20216;-70
2021/09/03 10:50:23;;;;;;;11.40;4.63;;;;;;;24.62;30.51;95529.41;5053054;28;20204;-70
2021/09/03 10:53:07;;;;;;;9.00;4.93;;;;;;;24.68;32.85;95522.72;5047945;28;20203;-71
2021/09/03 10:56:10;;;;;;;7.37;4.60;;;;;;;24.87;31.93;95525.72;5032622;28;20634;-73
2021/09/03 10:58:37;;;;;;;6.37;4.80;;;;;;;24.82;31.09;95519.78;5053285;28;20204;-74
2021/09/03 11:01:10;;;;;;;5.80;4.80;;;;;;;24.71;32.55;95519.41;5051638;28;20293;-71
2021/09/03 11:03:55;;;;;;;9.20;4.70;;;;;;;24.62;32.24;95518.69;5052249;28;20211;-72
2021/09/03 11:06:25;;;;;;;8.10;4.40;;;;;;;24.94;32.05;95520.59;5031803;28;20280;-73
2021/09/03 11:08:59;;;;;;;6.97;5.30;;;;;;;24.86;30.66;95518.00;5044877;28;20189;-71
2021/09/03 11:11:35;;;;;;;6.30;4.40;;;;;;;25.00;30.63;95519.28;5051495;28;20227;-70
2021/09/03 11:14:06;;;;;;;7.80;5.13;;;;;;;24.84;31.61;95507.63;5039618;28;20638;-72
2021/09/03 11:16:38;;;;;;;7.27;5.00;;;;;;;24.95;31.25;95511.47;5048119;28;20197;-71
2021/09/03 11:19:09;;;;;;;6.10;4.80;;;;;;;24.92;32.10;95516.69;5042040;28;20196;-70
2021/09/03 11:21:39;;;;;;;7.53;5.13;;;;;;;24.67;31.46;95510.44;5048792;28;20217;-71
2021/09/03 11:24:08;;;;;;;10.43;4.77;;;;;;;24.64;32.65;95513.78;5041590;28;20212;-70
2021/09/03 11:26:36;;;;;;;8.33;4.73;;;;;;;24.75;32.40;95506.94;5051487;28;20212;-71
2021/09/03 11:29:18;;;;;;;7.50;4.97;;;;;;;24.97;31.97;95509.22;5051853;28;20192;-69
2021/09/03 11:32:06;;;;;;;8.40;4.90;;;;;;;25.22;31.28;95503.94;5048943;28;20652;-71
2021/09/03 11:34:39;;;;;;;8.13;5.13;;;;;;;25.57;30.96;95499.72;5043028;28;20266;-73
2021/09/03 11:37:06;;;;;;;7.73;4.83;;;;;;;25.91;30.91;95491.25;5051223;28;20193;-71
2021/09/03 11:39:33;;;;;;;5.67;4.53;;;;;;;26.21;31.17;95491.75;5041478;28;20201;-72